Minerva, OH (44657)

9:39 AM EST on December 07, 2016 (GMT -0500)
Lake Mohawk Weather Malvern Ohio | | Change Station

Elev 1056 ft 40.67 °N, 81.19 °W | Updated 7 seconds ago

Mostly Cloudy
Mostly Cloudy
31.6 °F
Feels Like 22 °F
N
11.9
Wind Variable Wind from WSW
Gusts 15.0 mph

Today
High -- | Low -- °F
--% Chance of Precip.
Yesterday
High -- | Low -- °F
Precip. -- in
Pressure 30.10 in
Visibility 8.0 miles
Clouds Scattered Clouds 1800 ft
Scattered Clouds 14000 ft
Mostly Cloudy 22000 ft
Windchill 22 °F
Dew Point 26 °F
Humidity 80%
Rainfall 0.00 in
Snow Depth Not available.
7:35 AM 4:56 PM
First Quarter, 53% visible
METAR KCAK 071351Z 24006KT 8SM SCT018 SCT140 BKN220 M01/M04 A3006 RMK AO2 SLP191 T10061044 $
Pressure 30.10 in
Visibility 8.0 miles
Clouds Scattered Clouds 1800 ft
Scattered Clouds 14000 ft
Mostly Cloudy 22000 ft
Windchill 22 °F
Dew Point 26 °F
Humidity 80%
Rainfall 0.00 in
Snow Depth Not available.
7:35 AM 4:56 PM
First Quarter, 53% visible
METAR KCAK 071351Z 24006KT 8SM SCT018 SCT140 BKN220 M01/M04 A3006 RMK AO2 SLP191 T10061044 $

10-Day Weather Forecast

Almanac

Astronomy

Dec. 07, 2016 Rise Set
Actual Time
Civil Twilight
Nautical Twilight
Astronomical Twilight
Moon
Length of Visible Light
Length of Day
Tomorrow will be .
, % of the Moon is Illuminated

Today's Extremes

State Highs State Lows

Community

WunderPhotos

Upload Photos

1,956,116 photos uploaded!

WunderBlog® & News

Nearby

Air Quality

  Air Quality AQ Index Pollutant
Not available.

Snow Depth

Station Depth Elevation

Earthquake Activity

City Distance Mag. Time & Date
Minimum magnitude displayed is 2.5.

Coastal Water Temperatures

Place Temperature

Stations

Nearby Weather Stations

Station Location Temp. Windchill Dew Point Humidity Wind Precip. Elev Updated Type
                   

Watches & Warnings

There are currently no watches in effect.